sensor_id;sensor_type;location;lat;lon;timestamp;pressure;altitude;pressure_sealevel;temperature;humidity
58757;BME280;44527;47.460;19.016;2022-11-20T12:52:51;99875.41;;;8.34;72.83
58757;BME280;44527;47.460;19.016;2022-11-20T13:06:44;99876.53;;;8.29;72.04
58757;BME280;44527;47.460;19.016;2022-11-20T13:09:49;99873.25;;;8.26;72.48
58757;BME280;44527;47.460;19.016;2022-11-20T13:13:02;99870.50;;;8.15;72.55
58757;BME280;44527;47.460;19.016;2022-11-20T13:16:16;99880.72;;;8.32;72.36
58757;BME280;44527;47.460;19.016;2022-11-20T13:19:23;99882.25;;;8.22;73.31
58757;BME280;44527;47.460;19.016;2022-11-20T13:22:29;99888.25;;;8.10;72.46
58757;BME280;44527;47.460;19.016;2022-11-20T13:25:38;99880.97;;;8.15;73.66
58757;BME280;44527;47.460;19.016;2022-11-20T13:28:42;99876.22;;;8.07;74.12
58757;BME280;44527;47.460;19.016;2022-11-20T13:31:47;99862.41;;;8.05;73.82
58757;BME280;44527;47.460;19.016;2022-11-20T13:34:55;99854.59;;;8.05;72.96
58757;BME280;44527;47.460;19.016;2022-11-20T13:38:17;99855.69;;;8.01;75.22
58757;BME280;44527;47.460;19.016;2022-11-20T13:41:34;99850.56;;;7.99;72.91
58757;BME280;44527;47.460;19.016;2022-11-20T13:44:51;99843.59;;;7.86;74.10
58757;BME280;44527;47.460;19.016;2022-11-20T13:47:58;99834.28;;;7.67;77.96
58757;BME280;44527;47.460;19.016;2022-11-20T13:51:29;99830.38;;;7.60;76.68
58757;BME280;44527;47.460;19.016;2022-11-20T13:54:59;99841.00;;;7.71;76.92
58757;BME280;44527;47.460;19.016;2022-11-20T14:01:35;99840.37;;;7.53;75.87
58757;BME280;44527;47.460;19.016;2022-11-20T14:04:48;99836.56;;;7.45;77.18
58757;BME280;44527;47.460;19.016;2022-11-20T14:07:53;99834.28;;;7.53;77.61
58757;BME280;44527;47.460;19.016;2022-11-20T14:11:06;99822.47;;;7.33;79.29
58757;BME280;44527;47.460;19.016;2022-11-20T14:14:18;99834.22;;;7.54;77.45
58757;BME280;44527;47.460;19.016;2022-11-20T14:17:30;99834.66;;;7.47;74.53
58757;BME280;44527;47.460;19.016;2022-11-20T14:20:38;99824.81;;;7.23;75.48
58757;BME280;44527;47.460;19.016;2022-11-20T14:23:42;99836.06;;;7.09;76.44
58757;BME280;44527;47.460;19.016;2022-11-20T14:26:45;99832.41;;;6.98;77.15
58757;BME280;44527;47.460;19.016;2022-11-20T14:29:51;99840.22;;;6.98;76.35
58757;BME280;44527;47.460;19.016;2022-11-20T14:32:59;99840.22;;;6.98;77.37
58757;BME280;44527;47.460;19.016;2022-11-20T14:36:05;99850.34;;;6.74;80.68
58757;BME280;44527;47.460;19.016;2022-11-20T14:39:11;99856.31;;;6.76;79.31
58757;BME280;44527;47.460;19.016;2022-11-20T14:42:21;99852.56;;;6.65;79.37
58757;BME280;44527;47.460;19.016;2022-11-20T14:45:26;99866.72;;;6.61;80.79
58757;BME280;44527;47.460;19.016;2022-11-20T14:48:57;99868.72;;;6.56;79.56
58757;BME280;44527;47.460;19.016;2022-11-20T14:52:14;99870.75;;;6.51;80.64
58757;BME280;44527;47.460;19.016;2022-11-20T14:55:30;99861.44;;;6.47;81.33
58757;BME280;44527;47.460;19.016;2022-11-20T14:58:33;99866.31;;;6.37;83.72
58757;BME280;44527;47.460;19.016;2022-11-20T15:01:39;99869.78;;;6.38;83.76
58757;BME280;44527;47.460;19.016;2022-11-20T15:04:49;99872.22;;;6.25;82.82
58757;BME280;44527;47.460;19.016;2022-11-20T15:08:08;99875.41;;;6.30;83.62
58757;BME280;44527;47.460;19.016;2022-11-20T15:11:22;99875.31;;;6.32;82.22
58757;BME280;44527;47.460;19.016;2022-11-20T15:14:30;99882.88;;;6.20;83.73
58757;BME280;44527;47.460;19.016;2022-11-20T15:17:36;99872.56;;;6.03;84.65
58757;BME280;44527;47.460;19.016;2022-11-20T15:20:41;99878.31;;;5.92;84.29
58757;BME280;44527;47.460;19.016;2022-11-20T15:23:45;99866.56;;;5.85;85.02
58757;BME280;44527;47.460;19.016;2022-11-20T15:26:48;99872.09;;;5.79;87.37
58757;BME280;44527;47.460;19.016;2022-11-20T15:29:51;99875.28;;;5.68;87.35
58757;BME280;44527;47.460;19.016;2022-11-20T15:32:58;99875.09;;;5.56;89.32
58757;BME280;44527;47.460;19.016;2022-11-20T15:36:00;99876.81;;;5.39;88.93
58757;BME280;44527;47.460;19.016;2022-11-20T15:39:04;99883.62;;;5.42;88.63
58757;BME280;44527;47.460;19.016;2022-11-20T15:42:09;99883.69;;;5.40;89.14
58757;BME280;44527;47.460;19.016;2022-11-20T15:45:12;99884.88;;;5.17;92.35
58757;BME280;44527;47.460;19.016;2022-11-20T15:48:19;99884.81;;;5.19;91.17
58757;BME280;44527;47.460;19.016;2022-11-20T15:51:36;99887.03;;;5.26;90.52
58757;BME280;44527;47.460;19.016;2022-11-20T15:54:42;99891.25;;;5.12;90.55
58757;BME280;44527;47.460;19.016;2022-11-20T15:57:46;99876.63;;;4.92;92.01
58757;BME280;44527;47.460;19.016;2022-11-20T16:00:50;99882.28;;;4.82;92.89
58757;BME280;44527;47.460;19.016;2022-11-20T16:03:55;99881.91;;;4.90;92.28
58757;BME280;44527;47.460;19.016;2022-11-20T16:06:58;99886.56;;;4.83;92.90
58757;BME280;44527;47.460;19.016;2022-11-20T16:10:02;99879.22;;;4.74;93.06
58757;BME280;44527;47.460;19.016;2022-11-20T16:13:15;99886.44;;;4.33;97.63
58757;BME280;44527;47.460;19.016;2022-11-20T16:16:38;99880.50;;;4.48;96.51
58757;BME280;44527;47.460;19.016;2022-11-20T16:19:42;99881.66;;;4.60;95.12
58757;BME280;44527;47.460;19.016;2022-11-20T16:22:46;99883.28;;;4.63;95.64
58757;BME280;44527;47.460;19.016;2022-11-20T16:25:52;99881.66;;;4.60;95.96
58757;BME280;44527;47.460;19.016;2022-11-20T16:28:57;99878.78;;;4.66;95.78
58757;BME280;44527;47.460;19.016;2022-11-20T16:32:02;99881.81;;;4.74;94.78
58757;BME280;44527;47.460;19.016;2022-11-20T16:35:06;99882.59;;;4.76;95.93
58757;BME280;44527;47.460;19.016;2022-11-20T16:38:12;99879.22;;;4.74;95.61
58757;BME280;44527;47.460;19.016;2022-11-20T16:41:17;99881.13;;;4.71;95.34
58757;BME280;44527;47.460;19.016;2022-11-20T16:44:20;99882.19;;;4.49;96.16
58757;BME280;44527;47.460;19.016;2022-11-20T16:47:27;99877.97;;;4.47;97.36
58757;BME280;44527;47.460;19.016;2022-11-20T16:50:31;99876.00;;;4.52;95.81
58757;BME280;44527;47.460;19.016;2022-11-20T16:53:35;99874.75;;;4.42;94.99
58757;BME280;44527;47.460;19.016;2022-11-20T16:56:42;99871.09;;;4.46;94.96
58757;BME280;44527;47.460;19.016;2022-11-20T16:59:49;99868.25;;;4.33;94.91
58757;BME280;44527;47.460;19.016;2022-11-20T17:02:52;99863.84;;;4.35;94.58
58757;BME280;44527;47.460;19.016;2022-11-20T17:06:24;99871.91;;;4.29;94.42
58757;BME280;44527;47.460;19.016;2022-11-20T17:09:47;99853.00;;;4.08;96.11
58757;BME280;44527;47.460;19.016;2022-11-20T17:13:40;99853.47;;;3.97;96.08
58757;BME280;44527;47.460;19.016;2022-11-20T17:17:21;99840.37;;;3.81;98.23
58757;BME280;44527;47.460;19.016;2022-11-20T17:21:34;99840.06;;;4.06;94.68
58757;BME280;44527;47.460;19.016;2022-11-20T17:26:12;99836.91;;;4.00;95.94
58757;BME280;44527;47.460;19.016;2022-11-20T17:30:15;99833.09;;;4.07;94.95
58757;BME280;44527;47.460;19.016;2022-11-20T17:38:17;99837.78;;;3.81;96.43
58757;BME280;44527;47.460;19.016;2022-11-20T17:42:13;99824.59;;;3.67;96.53
58757;BME280;44527;47.460;19.016;2022-11-20T17:46:15;99819.75;;;3.78;96.59
58757;BME280;44527;47.460;19.016;2022-11-20T17:50:02;99809.38;;;3.59;97.61
58757;BME280;44527;47.460;19.016;2022-11-20T17:53:51;99809.72;;;3.33;98.58
58757;BME280;44527;47.460;19.016;2022-11-20T17:57:58;99808.59;;;3.57;98.36
58757;BME280;44527;47.460;19.016;2022-11-20T18:01:35;99806.75;;;3.21;98.55
58757;BME280;44527;47.460;19.016;2022-11-20T18:05:21;99817.03;;;2.84;100.00
58757;BME280;44527;47.460;19.016;2022-11-20T18:09:05;99813.72;;;2.80;100.00
58757;BME280;44527;47.460;19.016;2022-11-20T18:12:32;99819.94;;;2.56;100.00
58757;BME280;44527;47.460;19.016;2022-11-20T18:15:48;99836.53;;;2.92;100.00
58757;BME280;44527;47.460;19.016;2022-11-20T18:19:22;99838.03;;;2.98;100.00
58757;BME280;44527;47.460;19.016;2022-11-20T18:22:48;99846.78;;;3.16;100.00
58757;BME280;44527;47.460;19.016;2022-11-20T18:26:23;99848.53;;;2.95;100.00
58757;BME280;44527;47.460;19.016;2022-11-20T18:30:05;99844.47;;;3.29;99.97
58757;BME280;44527;47.460;19.016;2022-11-20T18:33:46;99854.84;;;3.29;98.52
58757;BME280;44527;47.460;19.016;2022-11-20T18:37:32;99860.34;;;3.21;98.96
58757;BME280;44527;47.460;19.016;2022-11-20T18:40:47;99866.69;;;2.95;100.00
58757;BME280;44527;47.460;19.016;2022-11-20T18:44:22;99879.50;;;2.78;100.00
58757;BME280;44527;47.460;19.016;2022-11-20T18:48:02;99888.91;;;3.01;100.00
58757;BME280;44527;47.460;19.016;2022-11-20T18:51:50;99903.63;;;3.00;99.31
58757;BME280;44527;47.460;19.016;2022-11-20T18:55:15;99899.00;;;2.86;96.20
58757;BME280;44527;47.460;19.016;2022-11-20T18:58:42;99887.41;;;2.95;95.65
58757;BME280;44527;47.460;19.016;2022-11-20T19:02:18;99878.50;;;2.60;98.15
58757;BME280;44527;47.460;19.016;2022-11-20T19:05:41;99880.69;;;2.48;99.82
58757;BME280;44527;47.460;19.016;2022-11-20T19:08:48;99886.00;;;2.45;100.00
58757;BME280;44527;47.460;19.016;2022-11-20T19:11:57;99888.69;;;2.64;99.73
58757;BME280;44527;47.460;19.016;2022-11-20T19:15:22;99880.78;;;2.67;98.08
58757;BME280;44527;47.460;19.016;2022-11-20T19:18:29;99884.41;;;2.41;100.00
58757;BME280;44527;47.460;19.016;2022-11-20T19:21:44;99890.03;;;2.30;100.00
58757;BME280;44527;47.460;19.016;2022-11-20T19:24:54;99885.09;;;2.24;100.00
58757;BME280;44527;47.460;19.016;2022-11-20T19:28:17;99889.38;;;2.02;100.00
58757;BME280;44527;47.460;19.016;2022-11-20T19:31:39;99884.63;;;1.91;100.00
58757;BME280;44527;47.460;19.016;2022-11-20T19:35:01;99876.41;;;1.80;100.00
58757;BME280;44527;47.460;19.016;2022-11-20T19:38:13;99868.91;;;1.96;100.00
58757;BME280;44527;47.460;19.016;2022-11-20T19:41:24;99859.78;;;2.09;100.00
58757;BME280;44527;47.460;19.016;2022-11-20T19:44:36;99859.19;;;2.24;100.00
58757;BME280;44527;47.460;19.016;2022-11-20T19:47:45;99861.47;;;2.32;100.00
58757;BME280;44527;47.460;19.016;2022-11-20T19:51:19;99857.53;;;2.44;100.00
58757;BME280;44527;47.460;19.016;2022-11-20T19:54:23;99860.28;;;1.73;100.00
58757;BME280;44527;47.460;19.016;2022-11-20T19:57:32;99845.22;;;1.37;100.00
58757;BME280;44527;47.460;19.016;2022-11-20T20:00:45;99847.41;;;1.25;100.00
58757;BME280;44527;47.460;19.016;2022-11-20T20:03:50;99849.69;;;1.09;100.00
58757;BME280;44527;47.460;19.016;2022-11-20T20:06:59;99857.19;;;1.17;100.00
58757;BME280;44527;47.460;19.016;2022-11-20T20:10:16;99850.53;;;1.09;100.00
58757;BME280;44527;47.460;19.016;2022-11-20T20:13:22;99855.38;;;1.19;100.00
58757;BME280;44527;47.460;19.016;2022-11-20T20:16:41;99822.97;;;1.33;100.00
58757;BME280;44527;47.460;19.016;2022-11-20T20:19:48;99814.12;;;1.15;100.00
58757;BME280;44527;47.460;19.016;2022-11-20T20:22:58;99811.44;;;1.19;100.00
58757;BME280;44527;47.460;19.016;2022-11-20T20:26:14;99809.53;;;1.24;100.00
58757;BME280;44527;47.460;19.016;2022-11-20T20:29:20;99813.47;;;1.34;100.00
58757;BME280;44527;47.460;19.016;2022-11-20T20:32:26;99820.44;;;1.55;100.00
58757;BME280;44527;47.460;19.016;2022-11-20T20:35:34;99810.50;;;1.45;100.00
58757;BME280;44527;47.460;19.016;2022-11-20T20:38:51;99802.00;;;1.41;100.00
58757;BME280;44527;47.460;19.016;2022-11-20T20:41:59;99807.31;;;1.38;100.00
